createdAt,value
2016-04-15T04:23:21.953Z,19.7
2016-04-15T04:23:39.812Z,19.6
2016-04-15T04:23:58.094Z,19.5
2016-04-15T04:24:16.361Z,19.4
2016-04-15T04:24:34.642Z,19.4
2016-04-15T04:24:52.924Z,19.3
2016-04-15T04:25:11.208Z,19.3
2016-04-15T04:25:29.489Z,19.2
2016-04-15T04:25:47.770Z,19.2
2016-04-15T04:26:06.039Z,19.2
2016-04-15T04:26:24.352Z,19.1
2016-04-15T04:26:42.648Z,19.1
2016-04-15T04:27:00.914Z,19.1
2016-04-15T04:27:19.214Z,19
2016-04-15T04:27:37.495Z,19
2016-04-15T04:27:55.870Z,19
2016-04-15T04:28:14.139Z,19
2016-04-15T04:28:32.451Z,19
2016-04-15T04:28:50.717Z,19
2016-04-15T04:29:09.001Z,19
2016-04-15T04:29:27.314Z,18.9
2016-04-15T04:29:45.611Z,18.9
2016-04-15T04:30:03.909Z,18.9
2016-04-15T04:30:22.175Z,18.8
2016-04-15T04:30:40.331Z,18.8
2016-04-15T04:30:58.659Z,18.7
2016-04-15T04:31:16.928Z,18.6
2016-04-15T04:31:35.256Z,18.6
2016-04-15T04:31:53.537Z,18.6
2016-04-15T04:32:11.650Z,18.6
2016-04-15T04:32:29.962Z,18.6
2016-04-15T04:32:48.244Z,18.6
2016-04-15T04:33:05.871Z,18.6
2016-04-15T04:33:24.152Z,18.6
2016-04-15T04:33:42.433Z,18.6
2016-04-15T04:34:00.714Z,18.5
2016-04-15T04:34:18.999Z,18.5
2016-04-15T04:34:37.280Z,18.6
2016-04-15T04:34:55.577Z,18.6
2016-04-15T04:35:13.860Z,18.6
2016-04-15T04:35:32.172Z,18.6
2016-04-15T04:35:50.454Z,18.7
2016-04-15T04:36:08.754Z,18.7
2016-04-15T04:36:27.004Z,18.6
2016-04-15T04:36:45.300Z,18.6
2016-04-15T04:37:03.569Z,18.6
2016-04-15T04:37:21.850Z,18.5
2016-04-15T04:37:40.116Z,18.5
2016-04-15T04:37:58.413Z,18.5
2016-04-15T04:38:16.696Z,18.5
2016-04-15T04:38:34.993Z,18.4
2016-04-15T04:38:53.274Z,18.4
2016-04-15T04:39:11.543Z,18.3
2016-04-15T04:39:29.855Z,18.3
2016-04-15T04:39:48.137Z,18.2
2016-04-15T04:40:06.420Z,18.3
2016-04-15T04:40:24.685Z,18.2
2016-04-15T04:40:42.967Z,18.2
2016-04-15T04:41:01.232Z,18.2
2016-04-15T04:41:19.517Z,18.2
2016-04-15T04:41:37.626Z,18.2
2016-04-15T04:41:55.923Z,18.3
2016-04-15T04:42:14.191Z,18.2
2016-04-15T04:42:32.473Z,18.1
2016-04-15T04:42:50.754Z,18.2
2016-04-15T04:43:09.023Z,18.2
2016-04-15T04:43:27.319Z,18.2
2016-04-15T04:43:45.585Z,18.2
2016-04-15T04:44:03.885Z,18.2
2016-04-15T04:44:22.166Z,18.2
2016-04-15T04:44:40.463Z,18.2
2016-04-15T04:44:58.744Z,18.3
2016-04-15T04:45:17.028Z,18.3
2016-04-15T04:45:35.309Z,18.3
2016-04-15T04:45:53.574Z,18.3
2016-04-15T04:46:11.859Z,18.3
2016-04-15T04:46:30.124Z,18.3
2016-04-15T04:46:48.406Z,18.4
2016-04-15T04:47:06.659Z,18.4
2016-04-15T04:47:24.955Z,18.4
2016-04-15T04:47:43.252Z,18.4
2016-04-15T04:48:01.534Z,18.4
2016-04-15T04:48:19.801Z,18.4
2016-04-15T04:48:38.067Z,18.3
2016-04-15T04:48:56.332Z,18.3
2016-04-15T04:49:14.617Z,18.2
2016-04-15T04:49:32.914Z,18.2
2016-04-15T04:49:51.242Z,18.2
2016-04-15T04:50:09.525Z,18.2
2016-04-15T04:50:27.853Z,18.1
2016-04-15T04:50:46.103Z,18.2
2016-04-15T04:51:04.372Z,18.1
2016-04-15T04:51:22.715Z,18.2
2016-04-15T04:51:41.420Z,18.2
2016-04-15T04:51:59.154Z,18.2
2016-04-15T04:52:17.469Z,18.2
2016-04-15T04:52:36.001Z,18.1
2016-04-15T04:52:54.088Z,18.1
2016-04-15T04:53:12.236Z,18.1
2016-04-15T04:53:30.485Z,18.1
2016-04-15T04:53:48.626Z,18.1
2016-04-15T04:54:06.628Z,18.1
2016-04-15T04:54:24.737Z,18.1
2016-04-15T04:54:44.027Z,18
2016-04-15T04:55:02.295Z,17.9
2016-04-15T04:55:20.683Z,17.9
2016-04-15T04:55:38.714Z,18
2016-04-15T04:55:56.995Z,18
2016-04-15T04:56:15.264Z,18
2016-04-15T04:56:33.420Z,18
2016-04-15T04:56:51.686Z,18
2016-04-15T04:57:09.969Z,18
2016-04-15T04:57:28.250Z,18
2016-04-15T04:57:46.547Z,18
2016-04-15T04:58:04.800Z,18
2016-04-15T04:58:23.081Z,18
2016-04-15T04:58:41.347Z,17.9
2016-04-15T04:58:59.644Z,17.9
2016-04-15T04:59:17.959Z,17.9
2016-04-15T04:59:36.100Z,17.9
2016-04-15T04:59:54.397Z,17.9
2016-04-15T05:00:12.712Z,17.9
2016-04-15T05:00:31.025Z,17.9
2016-04-15T05:00:49.087Z,17.9
2016-04-15T05:01:07.355Z,17.9
2016-04-15T05:01:25.667Z,17.9
2016-04-15T05:01:43.980Z,17.9
2016-04-15T05:02:02.277Z,17.9
2016-04-15T05:02:20.561Z,17.9
2016-04-15T05:02:38.858Z,17.9
2016-04-15T05:02:57.123Z,17.9
2016-04-15T05:03:15.408Z,17.9
2016-04-15T05:03:33.689Z,17.9
2016-04-15T05:03:51.970Z,17.8
2016-04-15T05:04:10.253Z,17.8
2016-04-15T05:04:28.535Z,17.8
2016-04-15T05:04:46.175Z,17.8
2016-04-15T05:05:04.444Z,17.8
2016-04-15T05:05:22.741Z,17.8
2016-04-15T05:05:41.256Z,17.9
2016-04-15T05:05:59.147Z,17.9
2016-04-15T05:06:17.430Z,17.9
2016-04-15T05:06:35.712Z,17.9
2016-04-15T05:06:53.993Z,17.9
2016-04-15T05:07:12.261Z,18
2016-04-15T05:07:30.433Z,17.9
2016-04-15T05:07:48.746Z,17.9
2016-04-15T05:08:07.046Z,17.9
2016-04-15T05:08:25.311Z,17.9
2016-04-15T05:08:43.593Z,17.9
2016-04-15T05:09:01.889Z,17.9
2016-04-15T05:09:20.188Z,17.9
2016-04-15T05:09:38.485Z,17.9
2016-04-15T05:09:56.798Z,17.8
2016-04-15T05:10:15.052Z,17.9
2016-04-15T05:10:33.349Z,17.9
2016-04-15T05:10:51.645Z,17.9
2016-04-15T05:11:09.944Z,17.9
2016-04-15T05:11:28.319Z,17.8
2016-04-15T05:11:46.632Z,17.9
2016-04-15T05:12:04.932Z,17.9
2016-04-15T05:12:23.213Z,17.9
2016-04-15T05:12:41.494Z,17.9
2016-04-15T05:12:59.760Z,17.9
2016-04-15T05:13:18.044Z,18
2016-04-15T05:13:36.341Z,18
2016-04-15T05:13:54.607Z,18
2016-04-15T05:14:12.921Z,18.1
2016-04-15T05:14:31.202Z,18.2
2016-04-15T05:14:49.484Z,18.1
2016-04-15T05:15:07.768Z,18
2016-04-15T05:15:26.080Z,17.9
2016-04-15T05:15:44.205Z,17.9
2016-04-15T05:16:02.330Z,17.9
2016-04-15T05:16:20.615Z,17.9
2016-04-15T05:16:38.880Z,18
2016-04-15T05:16:57.161Z,18
2016-04-15T05:17:15.445Z,18.1
2016-04-15T05:17:33.710Z,18.1
2016-04-15T05:17:51.976Z,18.2
2016-04-15T05:18:10.276Z,18
2016-04-15T05:18:28.541Z,17.9
2016-04-15T05:18:46.823Z,17.9
2016-04-15T05:19:05.122Z,17.9
2016-04-15T05:19:23.387Z,17.8
2016-04-15T05:19:41.668Z,17.8
2016-04-15T05:19:59.934Z,17.7
2016-04-15T05:20:18.250Z,17.8
2016-04-15T05:20:36.515Z,17.8
2016-04-15T05:20:54.656Z,17.6
2016-04-15T05:21:12.956Z,17.6
2016-04-15T05:21:31.237Z,17.6
2016-04-15T05:21:49.518Z,17.6
2016-04-15T05:22:07.786Z,17.7
2016-04-15T05:22:26.067Z,17.7
2016-04-15T05:22:44.348Z,17.8
2016-04-15T05:23:02.630Z,17.8
2016-04-15T05:23:20.914Z,17.9
2016-04-15T05:23:39.179Z,18
2016-04-15T05:23:57.476Z,18
2016-04-15T05:24:15.776Z,18
2016-04-15T05:24:34.057Z,18
2016-04-15T05:24:52.386Z,18.1
2016-04-15T05:25:10.653Z,18.1
2016-04-15T05:25:28.919Z,18.1
2016-04-15T05:25:47.200Z,18.2
2016-04-15T05:26:05.516Z,18.2
2016-04-15T05:26:23.797Z,18.2
2016-04-15T05:26:42.094Z,18.3
2016-04-15T05:27:00.406Z,18.4
2016-04-15T05:27:18.690Z,18.4
2016-04-15T05:27:36.956Z,18.5
2016-04-15T05:27:55.534Z,18.5
2016-04-15T05:28:13.834Z,18.5
2016-04-15T05:28:32.100Z,18.6
2016-04-15T05:28:50.428Z,18.7
2016-04-15T05:29:08.696Z,18.7
2016-04-15T05:29:26.978Z,18.8
2016-04-15T05:29:45.259Z,18.8
2016-04-15T05:30:03.542Z,18.8
2016-04-15T05:30:21.823Z,18.8
2016-04-15T05:30:40.105Z,18.9
2016-04-15T05:30:58.386Z,18.9
2016-04-15T05:31:16.670Z,18.9
2016-04-15T05:31:34.951Z,18.9
2016-04-15T05:31:53.248Z,18.9
2016-04-15T05:32:11.532Z,18.9
2016-04-15T05:32:29.860Z,18.8
2016-04-15T05:32:48.125Z,18.8
2016-04-15T05:33:06.425Z,18.8
2016-04-15T05:33:24.722Z,18.8
2016-04-15T05:33:42.988Z,18.8
2016-04-15T05:34:01.269Z,18.8
2016-04-15T05:34:19.553Z,18.8
2016-04-15T05:34:37.850Z,18.8
2016-04-15T05:34:56.131Z,18.7
2016-04-15T05:35:13.743Z,18.4
2016-04-15T05:35:32.071Z,18.3
2016-04-15T05:35:50.415Z,18.3
2016-04-15T05:36:08.684Z,18.3
2016-04-15T05:36:26.965Z,18.3
2016-04-15T05:36:45.247Z,18.3
2016-04-15T05:37:03.514Z,18.3
2016-04-15T05:37:21.796Z,18.2
2016-04-15T05:37:40.092Z,18.2
2016-04-15T05:37:58.358Z,18.2
2016-04-15T05:38:16.642Z,18.1
2016-04-15T05:38:34.924Z,18.2
2016-04-15T05:38:53.220Z,18.2
2016-04-15T05:39:11.598Z,18.2
2016-04-15T05:39:29.833Z,18.1
2016-04-15T05:39:48.130Z,17.9
2016-04-15T05:40:06.460Z,18
2016-04-15T05:40:24.757Z,18.1
2016-04-15T05:40:43.022Z,18.1
2016-04-15T05:41:01.304Z,18.2
2016-04-15T05:41:19.619Z,18.2
2016-04-15T05:41:37.932Z,18.2
2016-04-15T05:41:56.291Z,18.2
2016-04-15T05:42:14.590Z,18.3
2016-04-15T05:42:32.871Z,18.3
2016-04-15T05:42:51.168Z,18.1
2016-04-15T05:43:09.452Z,18.1
2016-04-15T05:43:27.749Z,18.2
2016-04-15T05:43:46.030Z,18
2016-04-15T05:44:04.315Z,17.9
2016-04-15T05:44:22.596Z,18
2016-04-15T05:44:40.908Z,17.9
2016-04-15T05:44:59.205Z,17.6
2016-04-15T05:45:17.473Z,17.8
2016-04-15T05:45:35.848Z,17.9
2016-04-15T05:45:54.270Z,17.8
2016-04-15T05:46:12.476Z,17.9
2016-04-15T05:46:30.804Z,17.9
2016-04-15T05:46:49.163Z,18
2016-04-15T05:47:07.494Z,17.8
2016-04-15T05:47:25.854Z,17.9
2016-04-15T05:47:44.276Z,17.9
2016-04-15T05:48:02.619Z,17.9
2016-04-15T05:48:20.950Z,17.9
2016-04-15T05:48:39.215Z,17.9
2016-04-15T05:48:57.496Z,17.8
2016-04-15T05:49:15.796Z,17.9
2016-04-15T05:49:34.078Z,17.9
2016-04-15T05:49:52.421Z,17.7
2016-04-15T05:50:10.706Z,17.7
2016-04-15T05:50:28.971Z,17.8
2016-04-15T05:50:47.252Z,17.9
2016-04-15T05:51:05.551Z,17.8
2016-04-15T05:51:23.676Z,17.7
2016-04-15T05:51:41.973Z,17.8
2016-04-15T05:52:00.254Z,17.7
2016-04-15T05:52:18.555Z,17.6
2016-04-15T05:52:36.821Z,17.7
2016-04-15T05:52:55.102Z,17.8
2016-04-15T05:53:13.370Z,17.9
2016-04-15T05:53:31.667Z,17.9
2016-04-15T05:53:49.948Z,17.9
2016-04-15T05:54:08.263Z,17.9
2016-04-15T05:54:26.545Z,18
2016-04-15T05:54:44.810Z,18
2016-04-15T05:55:08.282Z,18
2016-04-15T05:55:25.329Z,18.1
2016-04-15T05:55:43.626Z,18.1
2016-04-15T05:56:01.923Z,18
2016-04-15T05:56:20.206Z,18
2016-04-15T05:56:38.518Z,18
2016-04-15T05:56:56.784Z,18
2016-04-15T05:57:15.068Z,18.1
2016-04-15T05:57:32.709Z,18.1
2016-04-15T05:57:50.990Z,18.2
2016-04-15T05:58:09.289Z,18.2
2016-04-15T05:58:27.570Z,18
2016-04-15T05:58:45.852Z,18
2016-04-15T05:59:04.167Z,17.8
2016-04-15T05:59:22.464Z,17.7
2016-04-15T05:59:40.730Z,17.6
2016-04-15T05:59:59.011Z,17.6
2016-04-15T06:00:17.295Z,17.5
2016-04-15T06:00:35.576Z,17.4
2016-04-15T06:00:53.858Z,17.5
2016-04-15T06:01:12.141Z,17.5
2016-04-15T06:01:30.406Z,17.6
2016-04-15T06:01:48.688Z,17.6
2016-04-15T06:02:06.972Z,17.7
2016-04-15T06:02:25.253Z,17.8
2016-04-15T06:02:43.519Z,17.8
2016-04-15T06:03:01.800Z,17.7
2016-04-15T06:03:20.083Z,17.7
2016-04-15T06:03:38.365Z,17.7
2016-04-15T06:03:56.677Z,17.8
2016-04-15T06:04:14.961Z,17.8
2016-04-15T06:04:33.243Z,17.7
2016-04-15T06:04:51.539Z,17.8
2016-04-15T06:05:09.167Z,17.8
2016-04-15T06:05:27.449Z,17.8
2016-04-15T06:05:45.730Z,17.8
2016-04-15T06:06:04.013Z,17.8
2016-04-15T06:06:22.357Z,17.8
2016-04-15T06:06:40.623Z,17.6
2016-04-15T06:06:58.904Z,17.5
2016-04-15T06:07:17.188Z,17.7
2016-04-15T06:07:35.313Z,17.7
2016-04-15T06:07:53.579Z,17.8
2016-04-15T06:08:11.879Z,17.8
2016-04-15T06:08:30.144Z,17.9
2016-04-15T06:08:48.425Z,18
2016-04-15T06:09:06.694Z,18
2016-04-15T06:09:24.991Z,18.1
2016-04-15T06:09:43.257Z,18.1
2016-04-15T06:10:01.569Z,18.2
2016-04-15T06:10:19.853Z,18.2
2016-04-15T06:10:38.119Z,18.2
2016-04-15T06:10:56.400Z,18.1
2016-04-15T06:11:14.700Z,18.1
2016-04-15T06:11:32.966Z,18.1
2016-04-15T06:11:51.247Z,18.2
2016-04-15T06:12:09.530Z,18.2
2016-04-15T06:12:27.827Z,18.3
2016-04-15T06:12:46.093Z,18.3
2016-04-15T06:13:04.393Z,18.3
2016-04-15T06:13:22.674Z,18.4
2016-04-15T06:13:40.939Z,18.4
2016-04-15T06:13:59.283Z,18.5
2016-04-15T06:14:17.566Z,18.5
2016-04-15T06:14:35.848Z,18.5
2016-04-15T06:14:54.113Z,18.6
2016-04-15T06:15:12.444Z,18.6
2016-04-15T06:15:30.726Z,18.6
2016-04-15T06:15:49.023Z,18.6
2016-04-15T06:16:07.338Z,18.7
2016-04-15T06:16:25.588Z,18.7
2016-04-15T06:16:43.901Z,18.7
2016-04-15T06:17:02.151Z,18.7
2016-04-15T06:17:20.465Z,18.7
2016-04-15T06:17:38.746Z,18.7
2016-04-15T06:17:57.012Z,18.7
2016-04-15T06:18:15.281Z,18.8
2016-04-15T06:18:33.562Z,18.8
2016-04-15T06:18:51.874Z,18.8
2016-04-15T06:19:10.143Z,18.8
2016-04-15T06:19:28.440Z,18.5
2016-04-15T06:19:46.721Z,18.5
2016-04-15T06:20:05.005Z,18.2
2016-04-15T06:20:23.287Z,18.1
2016-04-15T06:20:41.568Z,18.1
2016-04-15T06:20:59.871Z,18.1
2016-04-15T06:21:18.185Z,18.1
2016-04-15T06:21:36.466Z,18.2
2016-04-15T06:21:54.623Z,18.2
2016-04-15T06:22:12.611Z,18.3
2016-04-15T06:22:30.876Z,18.3
2016-04-15T06:22:49.205Z,18.4
2016-04-15T06:23:07.489Z,18.4
2016-04-15T06:23:25.770Z,18.5
2016-04-15T06:23:44.036Z,18.5
2016-04-15T06:24:02.348Z,18.5
2016-04-15T06:24:20.632Z,18.6
2016-04-15T06:24:38.929Z,18.6
2016-04-15T06:24:57.211Z,18.6
2016-04-15T06:25:15.494Z,18.6
2016-04-15T06:25:33.759Z,18.6
2016-04-15T06:25:52.041Z,18.6
2016-04-15T06:26:11.622Z,18.7
2016-04-15T06:26:29.887Z,18.6
2016-04-15T06:26:48.184Z,18.6
2016-04-15T06:27:06.452Z,18.6
2016-04-15T06:27:24.733Z,18.7
2016-04-15T06:27:43.004Z,18.7
2016-04-15T06:28:01.301Z,18.6
2016-04-15T06:28:18.804Z,18.7
2016-04-15T06:28:37.069Z,18.7
2016-04-15T06:28:55.366Z,18.7
2016-04-15T06:29:13.649Z,18.7
2016-04-15T06:29:31.977Z,18.7
2016-04-15T06:29:50.274Z,18.7
2016-04-15T06:30:08.590Z,18.8
2016-04-15T06:30:26.699Z,18.8
2016-04-15T06:30:44.996Z,18.8
2016-04-15T06:31:02.980Z,18.8
2016-04-15T06:31:21.249Z,18.8
2016-04-15T06:31:39.515Z,18.8
2016-04-15T06:31:57.843Z,18.8
2016-04-15T06:32:16.127Z,18.8
2016-04-15T06:32:34.408Z,18.8
2016-04-15T06:32:52.690Z,18.8
2016-04-15T06:33:10.958Z,18.9
2016-04-15T06:33:29.239Z,18.9
2016-04-15T06:33:47.521Z,18.9
2016-04-15T06:34:04.992Z,19
2016-04-15T06:34:23.633Z,19
2016-04-15T06:34:41.914Z,19
2016-04-15T06:35:00.211Z,19
2016-04-15T06:35:18.510Z,19
2016-04-15T06:35:36.823Z,19.1
2016-04-15T06:35:55.104Z,19
2016-04-15T06:36:13.388Z,19
2016-04-15T06:36:31.669Z,19
2016-04-15T06:36:49.951Z,19.1
2016-04-15T14:47:26.650Z,23.7
2016-04-15T14:47:44.494Z,23.6
2016-04-15T14:48:11.685Z,23.3
2016-04-15T14:48:29.966Z,23.2
2016-04-15T14:48:48.232Z,21.8
2016-04-15T14:49:06.513Z,20.1
2016-04-15T14:49:24.812Z,20
2016-04-15T14:49:43.109Z,19.1
2016-04-15T14:50:01.359Z,18.2
2016-04-15T14:50:19.658Z,17.3
2016-04-15T14:50:37.924Z,16.4
2016-04-15T14:50:56.205Z,16.1
2016-04-15T14:51:14.457Z,15.8
2016-04-15T14:51:32.759Z,15.7
2016-04-15T14:51:51.009Z,15.6
2016-04-15T14:52:09.293Z,15.4
2016-04-15T14:52:27.575Z,15.3
2016-04-15T14:52:45.887Z,15.1
2016-04-15T14:53:04.168Z,15.1
2016-04-15T14:53:22.437Z,15.1
2016-04-15T14:53:40.703Z,15
2016-04-15T14:53:58.953Z,14.9
2016-04-15T14:54:17.251Z,14.8
2016-04-15T14:54:35.423Z,14.7
2016-04-15T14:54:53.783Z,14.7
2016-04-15T14:55:12.051Z,14.5
2016-04-15T14:55:30.317Z,14.4
2016-04-15T14:55:48.598Z,14.3
2016-04-15T14:56:06.895Z,14.3
2016-04-15T14:56:25.163Z,14.2
2016-04-15T14:56:43.444Z,14.2
2016-04-15T14:57:01.725Z,14.2
2016-04-15T14:57:20.025Z,14.2
2016-04-15T14:57:38.322Z,14.2
2016-04-15T14:57:56.416Z,14.1
2016-04-15T14:58:14.684Z,14
2016-04-15T14:58:32.809Z,13.9
2016-04-15T14:58:51.091Z,13.9
2016-04-15T14:59:09.344Z,14
2016-04-15T14:59:27.609Z,13.9
2016-04-15T14:59:45.906Z,13.9
2016-04-15T15:00:04.172Z,13.9
2016-04-15T15:00:22.456Z,14
2016-04-15T15:00:40.722Z,14
2016-04-15T15:00:59.003Z,13.9
2016-04-15T15:01:17.177Z,14
2016-04-15T15:01:35.458Z,13.9
2016-04-15T15:01:53.755Z,13.9
2016-04-15T15:02:12.023Z,14
2016-04-15T15:02:30.305Z,13.9
2016-04-15T15:02:48.586Z,13.8
2016-04-15T15:03:06.852Z,13.7
2016-04-15T15:03:25.119Z,13.7
2016-04-15T15:03:43.416Z,13.9
2016-04-15T15:04:01.713Z,13.9
2016-04-15T15:04:19.982Z,13.9
2016-04-15T15:04:38.247Z,14
2016-04-15T15:04:56.513Z,14
2016-04-15T15:05:14.797Z,14
2016-04-15T15:05:33.063Z,14
2016-04-15T15:05:51.344Z,14.1
2016-04-15T15:06:09.628Z,14.1
2016-04-15T15:06:27.878Z,14.1
2016-04-15T15:06:46.066Z,14.2
2016-04-15T15:07:04.331Z,14.2
2016-04-15T15:07:22.630Z,14.3
2016-04-15T15:07:40.896Z,14.4
2016-04-15T15:07:59.177Z,14.4
2016-04-15T15:08:17.461Z,14.5
2016-04-15T15:08:35.743Z,14.6
2016-04-15T15:08:53.868Z,14.7
2016-04-15T15:09:12.136Z,14.6
2016-04-15T15:09:30.417Z,14.6
2016-04-15T15:09:48.699Z,14.6
2016-04-15T15:10:06.980Z,14.7
2016-04-15T15:10:25.264Z,14.5
2016-04-15T15:10:43.530Z,14.4
2016-04-15T15:11:01.795Z,14.4
2016-04-15T15:11:19.454Z,14.4
2016-04-15T15:11:37.735Z,14.4
2016-04-15T15:11:56.016Z,14.4
2016-04-15T15:12:14.285Z,14.5
2016-04-15T15:12:32.582Z,14.5
2016-04-15T15:12:50.847Z,14.6
2016-04-15T15:13:09.131Z,14.6
2016-04-15T15:13:27.412Z,14.4
2016-04-15T15:13:45.677Z,14.4
2016-04-15T15:14:03.959Z,14.4
2016-04-15T15:14:22.243Z,14.3
2016-04-15T15:14:40.524Z,14.3
2016-04-15T15:14:58.805Z,14.3
2016-04-15T15:15:17.090Z,14.3
2016-04-15T15:15:35.199Z,14.2
2016-04-15T15:15:53.543Z,14.2
2016-04-15T15:16:11.858Z,14.2
2016-04-15T15:16:30.124Z,14.2
2016-04-15T15:16:48.405Z,14.1
2016-04-15T15:17:06.702Z,14.2
2016-04-15T15:17:24.986Z,14.1
2016-04-15T15:17:43.252Z,14.2
2016-04-15T15:18:01.518Z,14.3
2016-04-15T15:18:19.660Z,14.3
2016-04-15T15:18:37.926Z,14.5
2016-04-15T15:18:56.207Z,14.6
2016-04-15T15:19:14.476Z,14.6
2016-04-15T15:19:32.773Z,14.6
2016-04-15T15:19:51.038Z,14.6
2016-04-15T15:20:09.321Z,14.5
2016-04-15T15:20:27.587Z,14.3
2016-04-15T15:20:45.868Z,14.4
2016-04-15T15:21:04.165Z,14.3
2016-04-15T15:21:22.434Z,14.3
2016-04-15T15:21:40.699Z,14.3
2016-04-15T15:21:58.996Z,14.3
2016-04-15T15:22:17.264Z,14.3
2016-04-15T15:22:35.592Z,14.3
2016-04-15T15:22:53.795Z,14.3
2016-04-15T15:23:12.079Z,14.2
2016-04-15T15:23:30.345Z,14.2
2016-04-15T15:23:48.626Z,14.2
2016-04-15T15:24:06.861Z,14.2
2016-04-15T15:24:25.129Z,14.2
2016-04-15T15:24:43.411Z,14.3
2016-04-15T15:25:01.692Z,14.2
2016-04-15T15:25:19.819Z,14.3
2016-04-15T15:25:38.084Z,14.2
2016-04-15T15:25:56.209Z,14.2
2016-04-15T15:26:14.323Z,14
2016-04-15T15:26:32.604Z,14
2016-04-15T15:26:50.885Z,14
2016-04-15T15:27:09.153Z,14.1
2016-04-15T15:27:27.262Z,14
2016-04-15T15:27:45.528Z,14
2016-04-15T15:28:03.794Z,14.1
2016-04-15T15:28:22.078Z,14.2
2016-04-15T15:28:40.328Z,14.4
2016-04-15T15:28:58.640Z,14.3
2016-04-15T15:29:16.908Z,14.3
2016-04-15T15:29:35.174Z,14.3
2016-04-15T15:29:53.439Z,14.4
2016-04-15T15:30:11.739Z,14.5
2016-04-15T15:30:30.239Z,14.6
2016-04-15T15:30:48.302Z,14.5
2016-04-15T15:31:06.598Z,14.5
2016-04-15T15:31:24.851Z,14.5
2016-04-15T15:31:43.133Z,14.3
2016-04-15T15:32:01.414Z,14.2
2016-04-15T15:32:19.697Z,14.1
2016-04-15T15:32:37.963Z,14
2016-04-15T15:32:56.291Z,14
2016-04-15T15:33:14.528Z,13.9
2016-04-15T15:33:32.810Z,13.9
2016-04-15T15:33:50.950Z,13.9
2016-04-15T15:34:09.234Z,13.9
2016-04-15T15:34:27.516Z,13.9
2016-04-15T15:34:45.781Z,13.9
2016-04-15T15:35:04.047Z,13.8
2016-04-15T15:35:22.331Z,13.9
2016-04-15T15:35:40.612Z,14
2016-04-15T15:35:58.878Z,14.1
2016-04-15T15:36:17.146Z,14.2
2016-04-15T15:36:35.443Z,14.2
2016-04-15T15:36:53.693Z,14.1
2016-04-15T15:37:13.946Z,14.1
2016-04-15T15:37:32.211Z,14.1
2016-04-15T15:37:50.492Z,14.1
2016-04-15T15:38:08.777Z,14
2016-04-15T15:38:27.058Z,14.1
2016-04-15T15:38:45.324Z,14
2016-04-15T15:39:03.589Z,14
2016-04-15T15:39:21.216Z,13.9
2016-04-15T15:39:39.466Z,13.9
2016-04-15T15:39:57.747Z,14
2016-04-15T15:40:16.016Z,14.1
2016-04-15T15:40:34.297Z,14.1
2016-04-15T15:40:52.579Z,14.3
2016-04-15T15:41:10.847Z,14.2
2016-04-15T15:41:29.128Z,14.2
2016-04-15T15:41:47.394Z,14.3
2016-04-15T15:42:05.660Z,14.2
2016-04-15T15:42:23.928Z,14.2
2016-04-15T15:42:42.241Z,14.2
2016-04-15T15:43:00.522Z,14.2
2016-04-15T15:43:18.791Z,14.1
2016-04-15T15:43:37.072Z,14.1
2016-04-15T15:43:55.338Z,14.1
2016-04-15T15:44:13.621Z,14.1
2016-04-15T15:44:31.902Z,14
2016-04-15T15:44:50.152Z,14
2016-04-15T15:45:08.421Z,14
2016-04-15T15:45:26.686Z,13.9
2016-04-15T15:45:44.968Z,13.8
2016-04-15T15:46:03.233Z,13.8
2016-04-15T15:46:21.501Z,13.8
2016-04-15T15:46:39.766Z,13.8
2016-04-15T15:46:58.048Z,13.8
2016-04-15T15:47:16.301Z,13.7
2016-04-15T15:47:34.566Z,13.7
2016-04-15T15:47:52.848Z,13.6
2016-04-15T15:48:10.960Z,13.6
2016-04-15T15:48:29.241Z,13.6
2016-04-15T15:48:47.507Z,13.6
2016-04-15T15:49:05.772Z,13.6
2016-04-15T15:49:24.056Z,13.6
2016-04-15T15:49:42.337Z,13.7
2016-04-15T15:50:00.618Z,13.7
2016-04-15T15:50:18.902Z,13.7
2016-04-15T15:50:37.168Z,13.7
2016-04-15T15:50:55.434Z,13.7
2016-04-15T15:51:14.201Z,13.7
2016-04-15T15:51:32.358Z,13.7
2016-04-15T15:51:50.608Z,13.7
2016-04-15T15:52:08.908Z,13.9
2016-04-15T15:52:27.174Z,13.9
2016-04-15T15:52:45.440Z,13.8
2016-04-15T15:53:03.737Z,13.9
2016-04-15T15:53:22.004Z,13.9
2016-04-15T15:53:40.270Z,14
2016-04-15T15:53:58.535Z,13.9
2016-04-15T15:54:16.835Z,13.9
2016-04-15T15:54:35.085Z,13.9
2016-04-15T15:54:53.273Z,13.9
2016-04-15T15:55:11.556Z,14
2016-04-15T15:55:29.822Z,14
2016-04-15T15:55:48.103Z,13.9
2016-04-15T15:56:06.384Z,13.8
2016-04-15T15:56:24.653Z,13.8
2016-04-15T15:56:42.918Z,13.7
2016-04-15T15:57:01.200Z,13.8
2016-04-15T15:57:19.468Z,13.8
2016-04-15T15:57:37.734Z,13.9
2016-04-15T15:57:56.015Z,13.8
2016-04-15T15:58:14.283Z,13.9
2016-04-15T15:58:32.564Z,13.9
2016-04-15T15:58:50.830Z,13.9
2016-04-15T15:59:09.114Z,13.9
2016-04-15T15:59:27.380Z,13.9
2016-04-15T15:59:45.645Z,13.9
2016-04-15T16:00:03.911Z,13.9
2016-04-15T16:00:22.179Z,14
2016-04-15T16:00:40.476Z,14
2016-04-15T16:00:58.742Z,14.1
2016-04-15T16:01:17.026Z,14.1
2016-04-15T16:01:35.323Z,14.1
2016-04-15T16:01:53.604Z,14
2016-04-15T16:02:11.888Z,14
2016-04-15T16:02:30.169Z,14.1
2016-04-15T16:02:48.434Z,14.1
2016-04-15T16:03:06.825Z,14.1
2016-04-15T16:03:25.094Z,14.1
2016-04-15T16:03:43.453Z,14
2016-04-15T16:04:01.719Z,14
2016-04-15T16:04:19.987Z,14
2016-04-15T16:04:38.269Z,14
2016-04-15T16:04:56.534Z,14.1
2016-04-15T16:05:14.802Z,14.1
2016-04-15T16:05:33.099Z,14.1
2016-04-15T16:05:51.255Z,14.1
2016-04-15T16:06:09.586Z,14.2
2016-04-15T16:06:27.852Z,14.2
2016-04-15T16:06:46.133Z,14.2
2016-04-15T16:07:04.399Z,14.2
2016-04-15T16:07:22.697Z,14.1
2016-04-15T16:07:40.979Z,14.2
2016-04-15T16:07:59.244Z,14.1
2016-04-15T16:08:17.513Z,14.2
2016-04-15T16:08:35.966Z,14.3
2016-04-15T16:08:54.247Z,14.4
2016-04-15T16:09:12.578Z,14.4
2016-04-15T16:09:30.860Z,14.4
2016-04-15T16:09:49.016Z,14.4
2016-04-15T16:10:07.266Z,14.4
2016-04-15T16:10:25.566Z,14.4
2016-04-15T16:10:43.831Z,14.4
2016-04-15T16:11:02.113Z,14.4
2016-04-15T16:11:20.397Z,14.3
2016-04-15T16:11:38.678Z,14.2
2016-04-15T16:11:56.959Z,14
2016-04-15T16:12:15.227Z,14
2016-04-15T16:12:33.508Z,13.9
2016-04-15T16:12:51.790Z,14
2016-04-15T16:13:10.058Z,13.9
2016-04-15T16:13:28.355Z,15.2
2016-04-15T16:13:46.152Z,16.3
2016-04-15T16:14:04.433Z,16.8
2016-04-15T16:14:22.263Z,17.1
2016-04-15T16:14:40.498Z,17.5
2016-04-15T16:14:58.935Z,17.8
2016-04-15T16:15:17.313Z,18
2016-04-15T16:15:35.579Z,18.3
2016-04-15T16:15:53.844Z,18.5
2016-04-15T16:16:12.128Z,18.6
2016-04-15T16:16:30.425Z,18.8
2016-04-15T16:16:48.721Z,19
2016-04-15T16:17:07.034Z,19.1
2016-04-15T16:17:25.318Z,19.3
2016-04-15T16:17:43.615Z,19.4
2016-04-15T16:18:02.068Z,19.5
2016-04-15T16:18:20.024Z,19.6
2016-04-15T16:18:38.306Z,19.7
2016-04-15T16:18:56.587Z,19.7
2016-04-15T16:19:14.871Z,19.7
2016-04-15T16:19:33.137Z,19.7
2016-04-15T16:19:51.480Z,19.7
2016-04-15T16:20:09.733Z,19.7
2016-04-15T16:20:28.015Z,19.7
2016-04-15T16:20:46.327Z,19.8
2016-04-15T16:21:04.608Z,19.7
2016-04-15T16:21:22.893Z,19.7
2016-04-15T16:21:40.851Z,19.8
2016-04-15T16:21:58.976Z,19.8
2016-04-15T16:22:17.306Z,19.9
2016-04-15T16:22:35.525Z,19.9
2016-04-15T16:22:53.806Z,19.9
2016-04-15T16:23:12.074Z,19.8
2016-04-15T16:23:30.403Z,19.7
2016-04-15T16:23:48.684Z,19.7
2016-04-15T16:24:06.949Z,19.7
2016-04-15T16:24:25.248Z,19.7
2016-04-15T16:24:43.545Z,19.7
2016-04-15T16:25:01.811Z,19.7
2016-04-15T16:25:20.095Z,19.8
2016-04-15T16:25:38.376Z,19.8
2016-04-15T16:25:56.658Z,19.8
2016-04-15T16:26:14.941Z,19.8
2016-04-15T16:26:33.238Z,19.7
2016-04-15T16:26:51.519Z,19.7
2016-04-15T16:27:09.835Z,19.8
2016-04-15T16:27:28.117Z,19.7
2016-04-15T16:27:46.429Z,19.7
2016-04-15T16:28:04.710Z,19.8
2016-04-15T16:28:22.978Z,19.8
2016-04-15T16:28:41.259Z,19.8
2016-04-15T16:28:59.541Z,19.8
2016-04-15T16:29:17.809Z,19.7
2016-04-15T16:29:36.122Z,19.8
2016-04-15T16:29:54.434Z,19.7
2016-04-15T16:30:12.734Z,19.8
2016-04-15T16:30:31.000Z,19.8
2016-04-15T16:30:49.281Z,19.8
2016-04-15T16:31:07.547Z,19.8
2016-04-15T16:31:25.845Z,19.7
2016-04-15T16:31:44.111Z,19.7
2016-04-15T16:32:01.752Z,19.7
2016-04-15T16:32:20.005Z,19.7
2016-04-15T16:32:38.286Z,19.7
2016-04-15T16:32:56.614Z,19.7
2016-04-15T16:33:14.851Z,19.6
2016-04-15T16:33:33.133Z,19.6
2016-04-15T16:33:51.258Z,19.6
2016-04-15T16:34:09.525Z,19.7
2016-04-15T16:34:27.807Z,19.7
2016-04-15T16:34:46.088Z,19.7
2016-04-15T16:35:04.385Z,19.6
2016-04-15T16:35:22.497Z,19.6
2016-04-15T16:35:40.622Z,19.6
2016-04-15T16:35:58.935Z,19.6
2016-04-15T16:36:17.202Z,19.5
2016-04-15T16:36:35.499Z,19.4
2016-04-15T16:36:53.765Z,19.4
2016-04-15T16:37:12.065Z,19.4
2016-04-15T16:37:30.346Z,19.5
2016-04-15T16:37:48.627Z,19.5
2016-04-15T16:38:06.940Z,19.5
2016-04-15T16:38:25.255Z,19.5
2016-04-15T16:38:43.583Z,19.5